Terminal Aerodrome Forecast
Issued by NWS Cleveland, OH

Home | Current Version | Previous Version | Graphics & Text | Print | Product List | Glossary Off
Versions: 1 2 3 4 5 6 7 8 9 10 11 12 13 14 15 16

908
FTUS41 KCLE 210857 AAB
TAFCAK
TAF AMD
KCAK 210857Z 2109/2206 00000KT P6SM FEW250
      TEMPO 2109/2113 2SM BR SCT004
     FM211300 00000KT 5SM BR SCT006
     FM211400 17003KT P6SM SCT250
     FM211800 16004KT P6SM SCT045
     FM220000 08003KT P6SM FEW250=

USA.gov is the U.S. government's official web portal to all federal, state and local government web resources and services.